createdAt,value
2022-08-17T00:03:19.467Z,89.63
2022-08-17T00:08:12.909Z,89.76
2022-08-17T00:13:18.582Z,89.73
2022-08-17T00:19:00.979Z,90.61
2022-08-17T00:23:23.469Z,90.66
2022-08-17T00:28:16.283Z,90.87
2022-08-17T00:33:16.401Z,90.89
2022-08-17T00:38:12.467Z,90.98
2022-08-17T00:43:21.117Z,90.25
2022-08-17T00:48:23.814Z,90.90
2022-08-17T00:53:22.434Z,91.22
2022-08-17T00:58:15.115Z,91.43
2022-08-17T01:03:11.919Z,91.90
2022-08-17T01:08:13.217Z,91.80
2022-08-17T01:13:05.195Z,92.40
2022-08-17T01:17:57.120Z,93.21
2022-08-17T01:22:49.182Z,92.42
2022-08-17T01:27:42.346Z,92.59
2022-08-17T01:32:34.142Z,93.25
2022-08-17T01:37:38.507Z,92.87
2022-08-17T01:42:36.073Z,92.71
2022-08-17T01:47:28.065Z,93.51
2022-08-17T01:52:23.918Z,93.63
2022-08-17T01:57:15.832Z,93.49
2022-08-17T02:02:07.760Z,94.12
2022-08-17T02:06:59.643Z,93.83
2022-08-17T02:11:52.600Z,93.99
2022-08-17T02:16:45.885Z,94.01
2022-08-17T02:21:39.686Z,94.04
2022-08-17T02:26:32.226Z,94.49
2022-08-17T02:31:24.029Z,94.67
2022-08-17T02:36:15.791Z,94.70
2022-08-17T02:41:07.762Z,95.19
2022-08-17T02:45:59.426Z,94.83
2022-08-17T02:50:51.095Z,94.82
2022-08-17T02:55:43.529Z,94.88
2022-08-17T03:00:41.163Z,94.85
2022-08-17T03:05:36.224Z,95.08
2022-08-17T03:10:28.203Z,95.48
2022-08-17T03:15:26.262Z,94.94
2022-08-17T03:20:19.392Z,95.29
2022-08-17T03:25:15.944Z,95.74
2022-08-17T03:30:13.645Z,95.12
2022-08-17T03:35:08.323Z,95.42
2022-08-17T03:40:00.324Z,95.64
2022-08-17T03:44:57.772Z,96.09
2022-08-17T03:50:07.834Z,96.47
2022-08-17T03:55:20.682Z,96.38
2022-08-17T04:00:34.887Z,96.41
2022-08-17T04:05:31.334Z,96.10
2022-08-17T04:10:26.783Z,95.75
2022-08-17T04:15:19.009Z,95.78
2022-08-17T04:20:12.747Z,95.62
2022-08-17T04:25:16.576Z,96.02
2022-08-17T04:30:08.989Z,95.90
2022-08-17T04:35:00.886Z,95.86
2022-08-17T04:40:12.711Z,95.75
2022-08-17T04:45:05.019Z,96.43
2022-08-17T04:49:56.706Z,96.17
2022-08-17T04:54:48.384Z,96.36
2022-08-17T04:59:40.128Z,96.37
2022-08-17T05:04:34.803Z,96.93
2022-08-17T05:09:26.978Z,96.50
2022-08-17T05:14:18.655Z,96.14
2022-08-17T05:19:10.297Z,96.01
2022-08-17T05:24:16.747Z,95.80
2022-08-17T05:29:15.605Z,95.29
2022-08-17T05:34:07.387Z,95.60
2022-08-17T05:38:59.009Z,95.86
2022-08-17T05:43:56.084Z,95.36
2022-08-17T05:48:57.732Z,95.08
2022-08-17T05:54:25.357Z,95.34
2022-08-17T06:00:03.214Z,95.32
2022-08-17T06:05:06.560Z,95.28
2022-08-17T06:10:10.977Z,95.25
2022-08-17T06:15:19.576Z,96.38
2022-08-17T06:20:14.737Z,95.70
2022-08-17T06:25:13.510Z,95.82
2022-08-17T06:30:10.710Z,95.81
2022-08-17T06:35:03.412Z,95.71
2022-08-17T06:40:21.838Z,96.61
2022-08-17T06:45:31.761Z,96.70
2022-08-17T06:50:37.769Z,96.04
2022-08-17T06:55:38.302Z,95.26
2022-08-17T07:00:37.868Z,93.53
2022-08-17T07:05:40.138Z,92.10
2022-08-17T07:10:44.873Z,92.03
2022-08-17T07:15:43.085Z,91.62
2022-08-17T07:20:35.986Z,91.11
2022-08-17T07:25:30.763Z,91.73
2022-08-17T07:30:28.443Z,90.61
2022-08-17T07:35:37.679Z,90.81
2022-08-17T07:40:39.958Z,91.04
2022-08-17T07:45:51.569Z,91.13
2022-08-17T07:50:43.474Z,91.06
2022-08-17T07:55:41.880Z,91.18
2022-08-17T08:00:33.812Z,90.96
2022-08-17T08:05:49.140Z,90.81
2022-08-17T08:10:45.586Z,89.92
2022-08-17T08:15:45.134Z,90.91
2022-08-17T08:20:54.035Z,89.35
2022-08-17T08:26:01.933Z,88.34
2022-08-17T08:31:03.530Z,88.93
2022-08-17T08:36:13.428Z,87.72
2022-08-17T08:41:43.303Z,87.88
2022-08-17T08:46:50.204Z,89.14
2022-08-17T08:51:46.482Z,87.69
2022-08-17T08:57:19.214Z,87.42
2022-08-17T09:02:07.151Z,87.06
2022-08-17T09:07:04.766Z,87.34
2022-08-17T09:12:14.054Z,85.26
2022-08-17T09:17:16.418Z,84.73
2022-08-17T09:22:22.402Z,83.68
2022-08-17T09:27:19.713Z,82.42
2022-08-17T09:32:52.091Z,79.59
2022-08-17T09:38:07.647Z,80.90
2022-08-17T09:42:59.467Z,79.22
2022-08-17T09:47:57.506Z,79.46
2022-08-17T09:52:53.986Z,78.09
2022-08-17T09:57:51.735Z,77.50
2022-08-17T10:02:58.827Z,78.14
2022-08-17T10:08:11.067Z,79.10
2022-08-17T10:13:19.245Z,78.72
2022-08-17T10:18:12.372Z,75.99
2022-08-17T10:23:36.184Z,76.62
2022-08-17T10:28:36.863Z,75.87
2022-08-17T10:33:51.006Z,74.51
2022-08-17T10:39:04.514Z,74.39
2022-08-17T10:44:40.898Z,73.62
2022-08-17T10:49:30.377Z,72.15
2022-08-17T10:54:24.732Z,72.14
2022-08-17T10:59:51.271Z,72.75
2022-08-17T11:04:47.889Z,72.50
2022-08-17T11:10:08.487Z,72.71
2022-08-17T11:15:31.994Z,71.93
2022-08-17T11:20:51.016Z,72.89
2022-08-17T11:25:51.121Z,73.61
2022-08-17T11:30:48.977Z,73.53
2022-08-17T11:35:51.293Z,73.00
2022-08-17T11:40:44.549Z,72.83
2022-08-17T11:45:57.335Z,73.25
2022-08-17T11:51:17.511Z,75.47
2022-08-17T11:56:48.017Z,76.79
2022-08-17T12:01:58.137Z,76.27
2022-08-17T12:06:57.527Z,77.17
2022-08-17T12:12:12.781Z,75.17
2022-08-17T12:17:09.314Z,75.26
2022-08-17T12:22:22.284Z,74.26
2022-08-17T12:27:46.186Z,74.12
2022-08-17T12:32:39.483Z,73.39
2022-08-17T12:37:33.828Z,73.33
2022-08-17T12:42:29.936Z,71.73
2022-08-17T12:47:23.155Z,70.76
2022-08-17T12:52:23.712Z,70.70
2022-08-17T12:57:37.278Z,69.51
2022-08-17T13:02:37.786Z,69.25
2022-08-17T13:07:44.690Z,70.13
2022-08-17T13:12:36.622Z,68.29
2022-08-17T13:17:32.504Z,67.38
2022-08-17T13:22:27.214Z,66.48
2022-08-17T13:27:21.722Z,67.45
2022-08-17T13:32:33.484Z,67.31
2022-08-17T13:37:30.234Z,67.25
2022-08-17T13:42:52.407Z,67.18
2022-08-17T13:47:44.928Z,67.72
2022-08-17T13:52:43.121Z,67.60
2022-08-17T13:57:36.250Z,68.61
2022-08-17T14:02:28.730Z,70.09
2022-08-17T14:07:27.370Z,69.42
2022-08-17T14:12:22.557Z,70.84
2022-08-17T14:17:14.184Z,70.55
2022-08-17T14:22:09.098Z,70.75
2022-08-17T14:27:03.432Z,71.87
2022-08-17T14:31:56.344Z,71.79
2022-08-17T14:36:48.841Z,71.63
2022-08-17T14:41:41.972Z,71.55
2022-08-17T14:46:33.675Z,71.64
2022-08-17T14:51:28.620Z,72.29
2022-08-17T14:56:20.635Z,72.64
2022-08-17T15:01:14.042Z,72.15
2022-08-17T15:06:05.852Z,72.04
2022-08-17T15:10:57.556Z,72.02
2022-08-17T15:15:49.766Z,71.52
2022-08-17T15:20:42.897Z,72.09
2022-08-17T15:25:34.565Z,72.24
2022-08-17T15:30:26.609Z,71.99
2022-08-17T15:35:18.836Z,72.32
2022-08-17T15:40:13.940Z,71.72
2022-08-17T15:45:08.920Z,71.51
2022-08-17T15:50:00.686Z,71.77
2022-08-17T15:54:56.999Z,71.49
2022-08-17T15:59:52.102Z,70.52
2022-08-17T16:04:50.073Z,69.99
2022-08-17T16:09:44.466Z,69.43
2022-08-17T16:14:37.043Z,69.79
2022-08-17T16:19:29.288Z,70.06
2022-08-17T16:24:21.057Z,69.58
2022-08-17T16:29:12.783Z,68.81
2022-08-17T16:34:17.945Z,68.60
2022-08-17T16:39:10.353Z,68.29
2022-08-17T16:44:02.759Z,68.68
2022-08-17T16:48:54.365Z,69.06
2022-08-17T16:53:45.962Z,69.05
2022-08-17T16:58:50.198Z,69.32
2022-08-17T17:03:44.083Z,69.02
2022-08-17T17:08:50.736Z,68.30
2022-08-17T17:14:02.182Z,68.66
2022-08-17T17:19:18.009Z,68.28
2022-08-17T17:25:01.302Z,67.79
2022-08-17T17:30:07.586Z,67.68
2022-08-17T17:35:07.117Z,67.89
2022-08-17T17:40:05.337Z,67.96
2022-08-17T17:45:18.673Z,68.32
2022-08-17T17:50:10.854Z,68.46
2022-08-17T17:55:23.096Z,68.55
2022-08-17T18:00:39.201Z,68.87
2022-08-17T18:05:37.297Z,69.32
2022-08-17T18:10:44.450Z,69.22
2022-08-17T18:15:43.416Z,69.38
2022-08-17T18:20:43.263Z,68.99
2022-08-17T18:25:52.011Z,69.29
2022-08-17T18:30:43.701Z,68.94
2022-08-17T18:35:35.677Z,69.51
2022-08-17T18:40:31.882Z,69.83
2022-08-17T18:45:38.642Z,69.73
2022-08-17T18:50:41.472Z,70.02
2022-08-17T18:55:34.171Z,70.05
2022-08-17T19:00:47.486Z,70.37
2022-08-17T19:05:44.482Z,70.49
2022-08-17T19:10:46.228Z,70.66
2022-08-17T19:16:11.594Z,70.54
2022-08-17T19:21:19.946Z,71.00
2022-08-17T19:26:53.776Z,71.03
2022-08-17T19:31:40.758Z,71.20
2022-08-17T19:36:50.671Z,71.02
2022-08-17T19:42:00.734Z,71.26
2022-08-17T19:47:30.483Z,71.41
2022-08-17T19:53:02.092Z,71.28
2022-08-17T19:58:17.780Z,71.36
2022-08-17T20:03:35.402Z,71.86
2022-08-17T20:08:34.513Z,72.16
2022-08-17T20:13:49.869Z,72.47
2022-08-17T20:19:07.917Z,72.80
2022-08-17T20:24:25.841Z,73.18
2022-08-17T20:29:17.424Z,73.42
2022-08-17T20:34:31.009Z,73.91
2022-08-17T20:39:49.194Z,73.58
2022-08-17T20:44:42.842Z,74.15
2022-08-17T20:49:44.770Z,74.05
2022-08-17T20:54:46.144Z,75.12
2022-08-17T20:59:43.558Z,75.74
2022-08-17T21:04:42.902Z,75.93
2022-08-17T21:09:34.622Z,76.20
2022-08-17T21:15:08.049Z,76.58
2022-08-17T21:20:22.776Z,77.25
2022-08-17T21:25:32.606Z,77.42
2022-08-17T21:30:30.338Z,77.71
2022-08-17T21:35:28.933Z,78.30
2022-08-17T21:40:29.838Z,78.28
2022-08-17T21:45:41.759Z,78.86
2022-08-17T21:50:35.660Z,79.51
2022-08-17T21:55:29.961Z,79.95
2022-08-17T22:00:30.857Z,79.98
2022-08-17T22:05:51.478Z,80.65
2022-08-17T22:10:48.452Z,81.21
2022-08-17T22:15:43.772Z,81.31
2022-08-17T22:20:35.529Z,81.18
2022-08-17T22:25:31.013Z,81.25
2022-08-17T22:30:34.758Z,81.91
2022-08-17T22:35:29.378Z,82.21
2022-08-17T22:40:33.594Z,82.46
2022-08-17T22:45:29.790Z,83.07
2022-08-17T22:50:25.403Z,83.18
2022-08-17T22:55:36.542Z,82.74
2022-08-17T23:00:41.701Z,82.92
2022-08-17T23:05:34.178Z,83.63
2022-08-17T23:10:28.350Z,83.56
2022-08-17T23:15:20.125Z,83.97
2022-08-17T23:20:14.048Z,83.92
2022-08-17T23:25:06.271Z,84.26
2022-08-17T23:29:58.466Z,84.21
2022-08-17T23:34:50.927Z,84.76
2022-08-17T23:39:45.065Z,85.02
2022-08-17T23:44:39.227Z,85.38
2022-08-17T23:49:32.224Z,85.48
2022-08-17T23:54:34.989Z,85.44
2022-08-17T23:59:27.638Z,86.01
